createdAt,value
2023-04-14T00:03:51.984Z,100.00
2023-04-14T00:08:48.364Z,100.00
2023-04-14T00:13:44.642Z,100.00
2023-04-14T00:18:41.048Z,100.00
2023-04-14T00:23:37.325Z,100.00
2023-04-14T00:28:33.676Z,100.00
2023-04-14T00:33:29.951Z,100.00
2023-04-14T00:38:26.268Z,100.00
2023-04-14T00:43:22.580Z,100.00
2023-04-14T00:48:19.057Z,100.00
2023-04-14T00:53:15.600Z,100.00
2023-04-14T00:58:13.172Z,100.00
2023-04-14T01:03:09.715Z,100.00
2023-04-14T01:08:06.427Z,100.00
2023-04-14T01:13:02.773Z,100.00
2023-04-14T01:18:07.885Z,100.00
2023-04-14T01:23:08.413Z,100.00
2023-04-14T01:28:34.408Z,100.00
2023-04-14T01:33:34.197Z,100.00
2023-04-14T01:38:33.131Z,100.00
2023-04-14T01:43:30.717Z,100.00
2023-04-14T01:48:28.149Z,100.00
2023-04-14T01:53:25.856Z,100.00
2023-04-14T01:58:22.694Z,100.00
2023-04-14T02:03:20.699Z,100.00
2023-04-14T02:08:17.910Z,100.00
2023-04-14T02:13:15.471Z,100.00
2023-04-14T02:18:11.749Z,100.00
2023-04-14T02:23:08.048Z,100.00
2023-04-14T02:28:06.598Z,100.00
2023-04-14T02:33:09.168Z,100.00
2023-04-14T02:38:08.352Z,100.00
2023-04-14T02:43:07.409Z,100.00
2023-04-14T02:48:07.594Z,100.00
2023-04-14T02:53:04.384Z,100.00
2023-04-14T02:58:01.036Z,100.00
2023-04-14T03:02:57.940Z,100.00
2023-04-14T03:07:55.188Z,100.00
2023-04-14T03:12:52.271Z,100.00
2023-04-14T03:17:54.012Z,100.00
2023-04-14T03:22:57.530Z,100.00
2023-04-14T03:27:55.935Z,100.00
2023-04-14T03:32:53.359Z,100.00
2023-04-14T03:37:51.100Z,100.00
2023-04-14T03:42:48.420Z,100.00
2023-04-14T03:47:44.945Z,100.00
2023-04-14T03:52:43.696Z,100.00
2023-04-14T03:57:41.783Z,100.00
2023-04-14T04:02:38.968Z,100.00
2023-04-14T04:07:36.069Z,100.00
2023-04-14T04:12:32.834Z,100.00
2023-04-14T04:17:31.245Z,100.00
2023-04-14T04:22:28.516Z,100.00
2023-04-14T04:27:28.149Z,100.00
2023-04-14T04:32:25.202Z,100.00
2023-04-14T04:37:21.772Z,100.00
2023-04-14T04:42:18.039Z,100.00
2023-04-14T04:47:14.855Z,100.00
2023-04-14T04:52:11.092Z,100.00
2023-04-14T04:57:07.513Z,100.00
2023-04-14T05:02:03.823Z,100.00
2023-04-14T05:07:00.106Z,100.00
2023-04-14T05:11:57.350Z,100.00
2023-04-14T05:16:53.602Z,100.00
2023-04-14T05:21:50.344Z,100.00
2023-04-14T05:26:57.882Z,100.00
2023-04-14T05:32:01.828Z,100.00
2023-04-14T05:36:58.066Z,100.00
2023-04-14T05:41:54.661Z,100.00
2023-04-14T05:46:51.142Z,100.00
2023-04-14T05:51:47.533Z,100.00
2023-04-14T05:56:43.789Z,100.00
2023-04-14T06:01:40.246Z,100.00
2023-04-14T06:06:36.539Z,100.00
2023-04-14T06:11:32.799Z,100.00
2023-04-14T06:16:29.124Z,100.00
2023-04-14T06:21:25.917Z,100.00
2023-04-14T06:26:22.369Z,100.00
2023-04-14T06:31:19.055Z,100.00
2023-04-14T06:36:18.079Z,100.00
2023-04-14T06:41:14.331Z,100.00
2023-04-14T06:46:10.866Z,100.00
2023-04-14T06:51:10.529Z,100.00
2023-04-14T06:56:07.158Z,100.00
2023-04-14T07:01:03.748Z,100.00
2023-04-14T07:06:03.952Z,100.00
2023-04-14T07:11:03.610Z,100.00
2023-04-14T07:16:00.742Z,100.00
2023-04-14T07:20:57.324Z,100.00
2023-04-14T07:25:54.652Z,100.00
2023-04-14T07:30:51.497Z,100.00
2023-04-14T07:36:01.337Z,100.00
2023-04-14T07:40:59.184Z,100.00
2023-04-14T07:45:55.479Z,100.00
2023-04-14T07:50:51.779Z,100.00
2023-04-14T07:55:48.039Z,100.00
2023-04-14T08:00:44.364Z,100.00
2023-04-14T08:05:42.291Z,100.00
2023-04-14T08:10:39.348Z,100.00
2023-04-14T08:15:35.691Z,100.00
2023-04-14T08:20:32.267Z,100.00
2023-04-14T08:25:28.609Z,100.00
2023-04-14T08:30:26.106Z,100.00
2023-04-14T08:35:36.002Z,100.00
2023-04-14T08:40:38.347Z,100.00
2023-04-14T08:45:35.574Z,100.00
2023-04-14T08:50:36.894Z,98.30
2023-04-14T08:55:33.756Z,77.22
2023-04-14T09:00:31.309Z,80.26
2023-04-14T09:05:28.893Z,78.96
2023-04-14T09:10:25.796Z,79.70
2023-04-14T09:15:22.597Z,79.91
2023-04-14T09:20:35.463Z,79.73
2023-04-14T09:25:33.272Z,75.57
2023-04-14T09:30:30.907Z,68.16
2023-04-14T09:35:43.486Z,70.62
2023-04-14T09:40:42.105Z,69.54
2023-04-14T09:45:43.049Z,63.25
2023-04-14T09:50:58.394Z,62.08
2023-04-14T09:55:54.704Z,56.14
2023-04-14T10:00:51.902Z,55.71
2023-04-14T10:05:48.208Z,59.89
2023-04-14T10:10:44.456Z,61.86
2023-04-14T10:15:41.637Z,53.11
2023-04-14T10:20:38.359Z,52.84
2023-04-14T10:25:34.721Z,54.31
2023-04-14T10:30:31.160Z,60.97
2023-04-14T10:35:37.451Z,59.99
2023-04-14T10:40:46.620Z,54.70
2023-04-14T10:45:59.160Z,55.32
2023-04-14T10:50:58.941Z,59.13
2023-04-14T10:55:58.406Z,56.49
2023-04-14T11:00:57.115Z,56.54
2023-04-14T11:05:53.458Z,57.10
2023-04-14T11:10:51.207Z,57.00
2023-04-14T11:15:51.766Z,53.72
2023-04-14T11:20:51.319Z,52.35
2023-04-14T11:25:48.398Z,53.38
2023-04-14T11:30:46.769Z,52.38
2023-04-14T11:35:43.053Z,50.48
2023-04-14T11:40:39.348Z,54.06
2023-04-14T11:45:35.966Z,48.45
2023-04-14T11:50:33.754Z,48.68
2023-04-14T11:55:30.051Z,46.50
2023-04-14T12:00:29.580Z,46.88
2023-04-14T12:05:31.154Z,43.52
2023-04-14T12:10:28.134Z,43.87
2023-04-14T12:15:24.665Z,43.09
2023-04-14T12:20:21.062Z,43.31
2023-04-14T12:25:17.386Z,42.44
2023-04-14T12:30:14.221Z,46.13
2023-04-14T12:35:10.878Z,43.74
2023-04-14T12:40:07.749Z,40.39
2023-04-14T12:45:05.329Z,43.63
2023-04-14T12:50:03.067Z,40.91
2023-04-14T12:54:59.329Z,49.19
2023-04-14T12:59:56.121Z,48.25
2023-04-14T13:04:52.424Z,46.39
2023-04-14T13:09:48.715Z,48.80
2023-04-14T13:14:45.207Z,44.72
2023-04-14T13:19:41.929Z,46.42
2023-04-14T13:24:38.406Z,46.09
2023-04-14T13:29:34.982Z,44.59
2023-04-14T13:34:32.245Z,50.74
2023-04-14T13:39:28.610Z,43.20
2023-04-14T13:44:24.899Z,45.69
2023-04-14T13:49:21.229Z,45.15
2023-04-14T13:54:17.466Z,43.68
2023-04-14T13:59:16.108Z,40.64
2023-04-14T14:04:12.566Z,41.62
2023-04-14T14:09:09.180Z,41.10
2023-04-14T14:14:05.648Z,41.18
2023-04-14T14:19:02.237Z,41.70
2023-04-14T14:23:59.130Z,40.24
2023-04-14T14:28:55.883Z,40.21
2023-04-14T14:33:52.186Z,42.76
2023-04-14T14:38:48.430Z,41.36
2023-04-14T14:43:44.692Z,42.41
2023-04-14T14:48:40.967Z,42.50
2023-04-14T14:53:37.187Z,40.95
2023-04-14T14:58:33.553Z,42.34
2023-04-14T15:03:29.857Z,42.47
2023-04-14T15:08:26.285Z,41.17
2023-04-14T15:13:23.271Z,39.54
2023-04-14T15:18:20.922Z,38.48
2023-04-14T15:23:17.168Z,39.33
2023-04-14T15:28:14.393Z,37.29
2023-04-14T15:33:10.880Z,39.31
2023-04-14T15:38:07.163Z,39.27
2023-04-14T15:43:03.408Z,36.00
2023-04-14T15:47:59.683Z,36.56
2023-04-14T15:52:57.085Z,39.56
2023-04-14T15:57:53.332Z,39.08
2023-04-14T16:02:49.727Z,37.42
2023-04-14T16:07:46.224Z,37.52
2023-04-14T16:12:43.320Z,36.97
2023-04-14T16:17:39.668Z,37.73
2023-04-14T16:22:35.958Z,36.71
2023-04-14T16:27:32.629Z,37.82
2023-04-14T16:32:29.608Z,38.16
2023-04-14T16:37:26.224Z,38.04
2023-04-14T16:42:26.197Z,36.27
2023-04-14T16:47:23.156Z,33.69
2023-04-14T16:52:19.654Z,31.46
2023-04-14T16:57:16.265Z,30.71
2023-04-14T17:02:12.590Z,29.17
2023-04-14T17:07:08.977Z,29.24
2023-04-14T17:12:05.248Z,31.70
2023-04-14T17:17:01.843Z,34.75
2023-04-14T17:21:58.163Z,34.78
2023-04-14T17:26:55.511Z,33.39
2023-04-14T17:31:52.199Z,33.54
2023-04-14T17:36:49.743Z,35.49
2023-04-14T17:41:46.189Z,39.01
2023-04-14T17:46:43.169Z,41.72
2023-04-14T17:51:39.807Z,44.31
2023-04-14T17:56:36.058Z,45.68
2023-04-14T18:01:33.162Z,49.25
2023-04-14T18:06:33.726Z,55.67
2023-04-14T18:11:30.207Z,73.61
2023-04-14T18:16:27.057Z,100.00
2023-04-14T18:21:23.445Z,100.00
2023-04-14T18:31:19.303Z,100.00
2023-04-14T18:36:15.648Z,100.00
2023-04-14T18:41:11.955Z,100.00
2023-04-14T18:46:08.256Z,100.00
2023-04-14T18:51:07.937Z,100.00
2023-04-14T18:56:04.544Z,100.00
2023-04-14T19:01:00.794Z,100.00
2023-04-14T19:05:57.505Z,100.00
2023-04-14T19:10:53.855Z,100.00
2023-04-14T19:15:50.227Z,100.00
2023-04-14T19:20:47.658Z,100.00
2023-04-14T19:25:44.089Z,100.00
2023-04-14T19:30:40.341Z,100.00
2023-04-14T19:35:36.621Z,100.00
2023-04-14T19:40:34.035Z,100.00
2023-04-14T19:45:30.461Z,100.00
2023-04-14T19:50:26.758Z,100.00
2023-04-14T19:55:24.161Z,100.00
2023-04-14T20:00:21.485Z,100.00
2023-04-14T20:05:17.778Z,100.00
2023-04-14T20:10:14.291Z,100.00
2023-04-14T20:15:10.610Z,100.00
2023-04-14T20:20:07.609Z,100.00
2023-04-14T20:25:04.224Z,100.00
2023-04-14T20:30:01.267Z,100.00
2023-04-14T20:34:58.563Z,100.00
2023-04-14T20:39:54.971Z,100.00
2023-04-14T20:44:51.261Z,100.00
2023-04-14T20:49:47.530Z,100.00
2023-04-14T20:54:43.918Z,100.00
2023-04-14T20:59:40.192Z,100.00
2023-04-14T21:04:36.474Z,100.00
2023-04-14T21:09:32.822Z,100.00
2023-04-14T21:15:30.825Z,100.00
2023-04-14T21:19:45.844Z,100.00
2023-04-14T21:24:46.576Z,100.00
2023-04-14T21:29:43.889Z,100.00
2023-04-14T21:34:40.680Z,100.00
2023-04-14T21:39:36.957Z,100.00
2023-04-14T21:44:33.266Z,100.00
2023-04-14T21:49:29.544Z,100.00
2023-04-14T21:54:26.368Z,100.00
2023-04-14T21:59:22.676Z,100.00
2023-04-14T22:04:28.815Z,100.00
2023-04-14T22:09:29.828Z,100.00
2023-04-14T22:14:26.398Z,100.00
2023-04-14T22:19:23.049Z,100.00
2023-04-14T22:24:19.311Z,100.00
2023-04-14T22:29:15.772Z,100.00
2023-04-14T22:34:12.053Z,100.00
2023-04-14T22:39:08.384Z,100.00
2023-04-14T22:44:06.538Z,100.00
2023-04-14T22:49:03.076Z,100.00
2023-04-14T22:53:59.520Z,100.00
2023-04-14T22:58:58.832Z,100.00
2023-04-14T23:03:55.325Z,100.00
2023-04-14T23:08:52.142Z,100.00
2023-04-14T23:13:48.810Z,100.00
2023-04-14T23:18:49.440Z,100.00
2023-04-14T23:23:45.939Z,100.00
2023-04-14T23:28:42.179Z,100.00
2023-04-14T23:33:38.430Z,100.00
2023-04-14T23:38:34.717Z,100.00
2023-04-14T23:43:30.981Z,100.00
2023-04-14T23:48:27.241Z,100.00
2023-04-14T23:53:24.410Z,100.00
2023-04-14T23:58:26.492Z,100.00
